createdAt,value
2019-04-11T00:00:11.066Z,54.22
2019-04-11T00:01:12.095Z,54.76
2019-04-11T00:02:10.622Z,54.76
2019-04-11T00:03:11.347Z,54.53
2019-04-11T00:04:10.605Z,54.02
2019-04-11T00:05:10.651Z,54.53
2019-04-11T00:06:11.737Z,54.04
2019-04-11T00:07:10.567Z,54.04
2019-04-11T00:08:10.575Z,54.43
2019-04-11T00:09:10.554Z,53.70
2019-04-11T00:10:10.530Z,53.81
2019-04-11T00:11:11.532Z,53.91
2019-04-11T00:12:10.509Z,54.02
2019-04-11T00:13:19.805Z,54.12
2019-04-11T00:14:11.593Z,53.70
2019-04-11T00:15:10.698Z,54.63
2019-04-11T00:16:10.461Z,54.55
2019-04-11T00:17:10.456Z,54.55
2019-04-11T00:18:10.466Z,54.55
2019-04-11T00:19:12.129Z,54.14
2019-04-11T00:20:11.712Z,54.35
2019-04-11T00:21:10.800Z,54.76
2019-04-11T00:22:11.086Z,54.55
2019-04-11T00:23:10.413Z,54.35
2019-04-11T00:24:10.486Z,54.55
2019-04-11T00:25:11.430Z,54.45
2019-04-11T00:26:10.375Z,53.94
2019-04-11T00:27:10.807Z,54.35
2019-04-11T00:28:10.330Z,54.66
2019-04-11T00:29:10.345Z,54.35
2019-04-11T00:30:10.316Z,54.25
2019-04-11T00:31:10.467Z,54.35
2019-04-11T00:32:11.988Z,54.32
2019-04-11T00:33:10.308Z,54.12
2019-04-11T00:34:10.958Z,54.35
2019-04-11T00:35:11.171Z,54.55
2019-04-11T00:36:10.405Z,53.96
2019-04-11T00:37:10.713Z,54.14
2019-04-11T00:38:10.220Z,54.48
2019-04-11T00:39:11.108Z,54.55
2019-04-11T00:40:11.043Z,54.55
2019-04-11T00:41:10.182Z,54.22
2019-04-11T00:42:10.374Z,54.55
2019-04-11T00:43:11.369Z,53.91
2019-04-11T00:44:10.440Z,53.60
2019-04-11T00:45:10.144Z,53.70
2019-04-11T00:46:10.124Z,54.35
2019-04-11T00:47:10.996Z,54.48
2019-04-11T00:48:11.238Z,54.66
2019-04-11T00:49:10.299Z,54.58
2019-04-11T00:50:10.713Z,54.35
2019-04-11T00:51:10.071Z,54.68
2019-04-11T00:52:10.062Z,55.20
2019-04-11T00:53:10.058Z,55.72
2019-04-11T00:54:10.853Z,55.74
2019-04-11T00:55:11.178Z,55.93
2019-04-11T00:57:11.148Z,55.33
2019-04-11T00:58:09.995Z,54.99
2019-04-11T00:59:10.016Z,55.30
2019-04-11T01:00:11.031Z,55.64
2019-04-11T01:01:09.961Z,55.72
2019-04-11T01:02:09.943Z,55.54
2019-04-11T01:03:09.994Z,56.34
2019-04-11T01:04:09.947Z,56.34
2019-04-11T01:05:09.914Z,56.05
2019-04-11T01:06:10.096Z,55.93
2019-04-11T01:07:10.987Z,55.82
2019-04-11T01:08:09.874Z,56.03
2019-04-11T01:09:11.001Z,55.72
2019-04-11T01:10:09.878Z,55.10
2019-04-11T01:11:09.943Z,55.62
2019-04-11T01:12:10.159Z,54.66
2019-04-11T01:13:09.817Z,54.76
2019-04-11T01:14:09.901Z,54.45
2019-04-11T01:15:09.839Z,54.14
2019-04-11T01:16:09.795Z,54.66
2019-04-11T01:17:09.776Z,54.79
2019-04-11T01:18:09.790Z,55.07
2019-04-11T01:19:10.756Z,55.10
2019-04-11T01:20:09.737Z,55.10
2019-04-11T01:21:10.334Z,54.76
2019-04-11T01:22:09.842Z,54.99
2019-04-11T01:23:09.708Z,55.30
2019-04-11T01:24:09.692Z,56.03
2019-04-11T01:25:10.486Z,56.57
2019-04-11T01:26:10.715Z,56.26
2019-04-11T01:27:09.864Z,56.44
2019-04-11T01:28:10.223Z,56.68
2019-04-11T01:29:09.635Z,56.47
2019-04-11T01:30:09.625Z,56.68
2019-04-11T01:31:09.647Z,56.60
2019-04-11T01:32:10.520Z,57.45
2019-04-11T01:33:10.658Z,57.32
2019-04-11T01:34:10.566Z,57.53
2019-04-11T01:35:09.608Z,57.45
2019-04-11T01:36:09.582Z,57.22
2019-04-11T01:37:09.548Z,57.32
2019-04-11T01:38:10.339Z,57.63
2019-04-11T01:39:10.584Z,57.29
2019-04-11T01:40:09.907Z,57.42
2019-04-11T01:41:10.023Z,57.63
2019-04-11T01:42:09.571Z,58.15
2019-04-11T01:43:09.508Z,57.63
2019-04-11T01:44:09.466Z,57.73
2019-04-11T01:45:09.672Z,57.60
2019-04-11T01:46:09.657Z,57.92
2019-04-11T01:47:09.429Z,57.40
2019-04-11T01:48:09.418Z,56.98
2019-04-11T01:49:10.193Z,56.98
2019-04-11T01:50:10.540Z,57.40
2019-04-11T01:51:09.728Z,57.19
2019-04-11T01:52:09.828Z,57.22
2019-04-11T01:53:09.367Z,56.98
2019-04-11T01:54:09.351Z,57.63
2019-04-11T01:55:10.275Z,57.63
2019-04-11T01:56:09.429Z,57.42
2019-04-11T01:57:09.710Z,57.84
2019-04-11T01:58:09.305Z,57.94
2019-04-11T01:59:09.298Z,57.63
2019-04-11T02:00:09.707Z,57.22
2019-04-11T02:01:09.396Z,57.32
2019-04-11T02:02:09.591Z,57.73
2019-04-11T02:03:09.249Z,57.32
2019-04-11T02:04:09.862Z,58.25
2019-04-11T02:05:10.438Z,57.09
2019-04-11T02:06:09.743Z,57.63
2019-04-11T02:07:10.156Z,57.35
2019-04-11T02:08:09.318Z,57.84
2019-04-11T02:09:09.179Z,57.87
2019-04-11T02:10:09.174Z,57.76
2019-04-11T02:11:09.707Z,58.18
2019-04-11T02:12:09.961Z,58.93
2019-04-11T02:13:09.932Z,58.75
2019-04-11T02:14:15.823Z,59.24
2019-04-11T02:15:10.314Z,59.14
2019-04-11T02:16:09.102Z,59.16
2019-04-11T02:17:09.114Z,59.03
2019-04-11T02:18:09.079Z,59.24
2019-04-11T02:19:10.127Z,59.03
2019-04-11T02:20:09.226Z,59.03
2019-04-11T02:21:09.398Z,58.93
2019-04-11T02:22:09.063Z,58.90
2019-04-11T02:23:09.022Z,58.69
2019-04-11T02:24:09.869Z,58.80
2019-04-11T02:25:09.066Z,58.80
2019-04-11T02:26:10.042Z,58.80
2019-04-11T02:27:09.008Z,58.80
2019-04-11T02:28:09.008Z,58.90
2019-04-11T02:29:09.011Z,59.24
2019-04-11T02:30:10.962Z,58.90
2019-04-11T02:31:10.147Z,58.93
2019-04-11T02:32:09.889Z,59.34
2019-04-11T02:33:09.993Z,59.27
2019-04-11T02:34:09.002Z,59.89
2019-04-11T02:35:08.929Z,59.89
2019-04-11T02:36:11.264Z,59.99
2019-04-11T02:37:09.315Z,59.99
2019-04-11T02:38:09.704Z,60.61
2019-04-11T02:39:12.969Z,60.72
2019-04-11T02:40:11.137Z,60.61
2019-04-11T02:41:11.703Z,60.51
2019-04-11T02:42:09.470Z,60.41
2019-04-11T02:43:09.824Z,59.89
2019-04-11T02:44:28.668Z,59.99
2019-04-11T02:45:25.175Z,59.86
2019-04-11T02:46:19.704Z,59.68
2019-04-11T02:47:15.812Z,59.78
2019-04-11T02:48:11.668Z,59.99
2019-04-11T02:49:10.245Z,59.75
2019-04-11T02:50:10.427Z,59.78
2019-04-11T02:51:09.860Z,59.78
2019-04-11T02:52:09.445Z,59.99
2019-04-11T02:53:09.456Z,60.10
2019-04-11T02:54:08.885Z,60.38
2019-04-11T02:55:10.674Z,60.79
2019-04-11T02:56:11.165Z,60.20
2019-04-11T02:57:09.916Z,60.17
2019-04-11T02:58:10.307Z,60.51
2019-04-11T02:59:08.999Z,60.61
2019-04-11T03:00:10.220Z,60.41
2019-04-11T03:01:10.438Z,60.51
2019-04-11T03:02:09.715Z,60.10
2019-04-11T03:03:10.290Z,59.99
2019-04-11T03:04:08.597Z,59.86
2019-04-11T03:05:10.081Z,60.06
2019-04-11T03:06:09.358Z,59.96
2019-04-11T03:07:09.958Z,59.75
2019-04-11T03:08:12.021Z,60.30
2019-04-11T03:09:10.904Z,60.06
2019-04-11T03:10:11.379Z,60.58
2019-04-11T03:11:10.696Z,60.93
2019-04-11T03:12:09.451Z,60.38
2019-04-11T03:13:08.637Z,60.72
2019-04-11T03:14:09.796Z,60.38
2019-04-11T03:15:23.956Z,60.58
2019-04-11T03:16:26.461Z,60.48
2019-04-11T03:17:18.882Z,60.69
2019-04-11T03:18:11.971Z,60.61
2019-04-11T03:19:22.590Z,60.51
2019-04-11T03:20:19.723Z,60.58
2019-04-11T03:21:14.577Z,61.03
2019-04-11T03:22:09.922Z,60.51
2019-04-11T03:23:10.863Z,60.82
2019-04-11T03:24:10.966Z,61.13
2019-04-11T03:25:08.653Z,60.72
2019-04-11T03:26:10.268Z,60.82
2019-04-11T03:27:10.064Z,61.34
2019-04-11T03:28:13.583Z,61.24
2019-04-11T03:29:11.166Z,61.57
2019-04-11T03:30:15.009Z,61.78
2019-04-11T03:31:47.242Z,61.68
2019-04-11T03:32:49.063Z,61.55
2019-04-11T03:34:01.766Z,61.68
2019-04-11T03:35:02.625Z,61.96
2019-04-11T03:35:59.888Z,62.06
2019-04-11T03:37:51.824Z,61.76
2019-04-11T03:38:29.670Z,62.09
2019-04-11T03:39:27.747Z,61.99
2019-04-11T03:40:27.177Z,61.99
2019-04-11T03:41:24.875Z,61.55
2019-04-11T03:42:21.233Z,62.09
2019-04-11T03:43:22.770Z,61.78
2019-04-11T03:44:18.215Z,61.78
2019-04-11T03:45:32.893Z,62.09
2019-04-11T03:46:24.979Z,61.88
2019-04-11T03:47:26.584Z,61.99
2019-04-11T03:48:23.647Z,61.96
2019-04-11T03:49:22.590Z,61.65
2019-04-11T03:50:15.327Z,61.78
2019-04-11T03:51:10.935Z,61.65
2019-04-11T03:52:10.117Z,62.09
2019-04-11T03:53:09.276Z,62.09
2019-04-11T03:54:09.619Z,62.33
2019-04-11T03:55:08.752Z,62.61
2019-04-11T03:56:09.647Z,62.12
2019-04-11T03:57:09.568Z,62.95
2019-04-11T03:58:08.560Z,62.85
2019-04-11T03:59:10.325Z,62.88
2019-04-11T04:00:09.968Z,63.68
2019-04-11T04:01:10.910Z,63.57
2019-04-11T04:02:09.853Z,63.06
2019-04-11T04:03:09.108Z,62.95
2019-04-11T04:04:09.059Z,62.85
2019-04-11T04:05:08.782Z,62.77
2019-04-11T04:06:09.017Z,63.06
2019-04-11T04:07:08.896Z,62.85
2019-04-11T04:08:08.705Z,63.16
2019-04-11T04:09:08.934Z,63.06
2019-04-11T04:10:12.610Z,62.71
2019-04-11T04:11:09.180Z,63.06
2019-04-11T04:12:09.413Z,63.06
2019-04-11T04:13:15.264Z,63.57
2019-04-11T04:14:10.302Z,63.26
2019-04-11T04:15:09.068Z,62.95
2019-04-11T04:16:17.405Z,63.09
2019-04-11T04:17:10.508Z,62.85
2019-04-11T04:18:08.561Z,63.26
2019-04-11T04:19:11.105Z,62.95
2019-04-11T04:20:08.923Z,62.95
2019-04-11T04:21:09.143Z,63.47
2019-04-11T04:22:07.895Z,63.47
2019-04-11T04:23:09.582Z,63.47
2019-04-11T04:24:08.613Z,63.57
2019-04-11T04:25:08.305Z,63.16
2019-04-11T04:26:10.005Z,63.68
2019-04-11T04:27:09.518Z,63.16
2019-04-11T04:28:09.595Z,63.37
2019-04-11T04:29:09.172Z,63.47
2019-04-11T04:30:08.631Z,63.57
2019-04-11T04:31:09.716Z,63.29
2019-04-11T04:32:08.413Z,63.26
2019-04-11T04:33:10.045Z,63.40
2019-04-11T04:34:09.109Z,63.60
2019-04-11T04:35:12.715Z,63.81
2019-04-11T04:36:10.759Z,63.57
2019-04-11T04:37:08.231Z,62.95
2019-04-11T04:38:09.312Z,63.50
2019-04-11T04:39:08.656Z,63.60
2019-04-11T04:40:23.822Z,63.29
2019-04-11T04:41:20.082Z,63.19
2019-04-11T04:42:17.183Z,63.92
2019-04-11T04:43:10.336Z,63.94
2019-04-11T04:44:08.538Z,64.02
2019-04-11T04:45:09.443Z,64.33
2019-04-11T04:46:25.176Z,64.02
2019-04-11T04:47:17.980Z,63.73
2019-04-11T04:48:11.817Z,63.94
2019-04-11T04:49:09.192Z,64.87
2019-04-11T04:50:08.851Z,64.36
2019-04-11T04:51:09.068Z,64.67
2019-04-11T04:52:09.503Z,64.46
2019-04-11T04:53:07.469Z,64.36
2019-04-11T04:54:08.118Z,64.23
2019-04-11T04:55:08.573Z,64.12
2019-04-11T04:56:09.020Z,64.15
2019-04-11T04:57:09.305Z,64.75
2019-04-11T04:58:09.002Z,63.81
2019-04-11T04:59:09.448Z,63.71
2019-04-11T05:00:07.328Z,63.92
2019-04-11T05:01:07.846Z,64.02
2019-04-11T05:02:08.784Z,63.81
2019-04-11T05:03:07.729Z,64.02
2019-04-11T05:04:08.968Z,65.78
2019-04-11T05:05:07.271Z,68.96
2019-04-11T05:06:07.747Z,66.93
2019-04-11T05:07:07.433Z,67.30
2019-04-11T05:08:08.326Z,69.27
2019-04-11T05:09:08.604Z,66.96
2019-04-11T05:10:08.883Z,64.27
2019-04-11T05:11:07.619Z,63.02
2019-04-11T05:12:07.314Z,64.37
2019-04-11T05:13:07.811Z,66.03
2019-04-11T05:14:07.318Z,63.06
2019-04-11T05:15:07.904Z,63.68
2019-04-11T05:16:16.902Z,66.06
2019-04-11T05:17:08.792Z,64.61
2019-04-11T05:18:08.823Z,65.83
2019-04-11T05:19:07.090Z,64.69
2019-04-11T05:20:07.086Z,63.75
2019-04-11T05:21:07.159Z,65.10
2019-04-11T05:22:07.085Z,63.23
2019-04-11T05:23:07.066Z,63.54
2019-04-11T05:24:07.167Z,63.65
2019-04-11T05:25:07.037Z,63.75
2019-04-11T05:26:07.024Z,65.62
2019-04-11T05:27:08.241Z,64.79
2019-04-11T05:28:07.002Z,64.14
2019-04-11T05:29:07.000Z,62.61
2019-04-11T05:30:07.933Z,62.92
2019-04-11T05:31:08.011Z,62.92
2019-04-11T05:32:07.312Z,62.30
2019-04-11T05:33:06.969Z,62.30
2019-04-11T05:34:07.793Z,62.51
2019-04-11T05:35:07.020Z,62.54
2019-04-11T05:36:07.832Z,63.34
2019-04-11T05:37:06.970Z,63.13
2019-04-11T05:38:06.904Z,63.02
2019-04-11T05:39:06.881Z,63.02
2019-04-11T05:40:07.286Z,62.95
2019-04-11T05:41:11.150Z,63.02
2019-04-11T05:42:07.842Z,63.06
2019-04-11T05:43:07.867Z,63.02
2019-04-11T05:44:10.475Z,62.92
2019-04-11T05:45:11.619Z,62.95
2019-04-11T05:46:25.124Z,63.57
2019-04-11T05:47:08.897Z,63.26
2019-04-11T05:48:06.774Z,63.68
2019-04-11T05:49:07.186Z,62.85
2019-04-11T05:50:10.109Z,62.92
2019-04-11T05:51:08.842Z,62.82
2019-04-11T05:52:08.022Z,63.06
2019-04-11T05:53:07.415Z,62.92
2019-04-11T05:54:08.033Z,62.71
2019-04-11T05:55:08.251Z,63.02
2019-04-11T05:56:07.108Z,62.99
2019-04-11T05:57:07.019Z,63.02
2019-04-11T05:58:10.696Z,62.82
2019-04-11T05:59:07.681Z,63.26
2019-04-11T06:00:07.538Z,63.37
2019-04-11T06:01:06.629Z,63.26
2019-04-11T06:02:07.764Z,63.89
2019-04-11T06:03:07.821Z,63.89
2019-04-11T06:04:07.808Z,64.09
2019-04-11T06:05:06.873Z,63.89
2019-04-11T06:06:06.619Z,63.78
2019-04-11T06:07:08.384Z,63.65
2019-04-11T06:08:06.681Z,63.44
2019-04-11T06:09:09.272Z,63.13
2019-04-11T06:10:09.502Z,63.20
2019-04-11T06:11:06.522Z,62.92
2019-04-11T06:12:07.459Z,62.92
2019-04-11T06:13:06.507Z,63.23
2019-04-11T06:14:07.419Z,63.34
2019-04-11T06:15:06.499Z,62.82
2019-04-11T06:16:06.516Z,63.13
2019-04-11T06:17:07.301Z,62.71
2019-04-11T06:18:07.002Z,63.06
2019-04-11T06:19:06.450Z,63.34
2019-04-11T06:20:06.453Z,62.82
2019-04-11T06:21:07.499Z,62.71
2019-04-11T06:22:06.702Z,63.26
2019-04-11T06:23:06.714Z,63.26
2019-04-11T06:24:06.385Z,63.26
2019-04-11T06:25:08.742Z,63.89
2019-04-11T06:26:08.794Z,64.02
2019-04-11T06:27:06.970Z,64.09
2019-04-11T06:28:06.338Z,64.09
2019-04-11T06:29:16.255Z,63.65
2019-04-11T06:30:07.554Z,63.65
2019-04-11T06:31:07.525Z,63.96
2019-04-11T06:32:06.285Z,63.37
2019-04-11T06:33:06.282Z,62.92
2019-04-11T06:34:07.210Z,63.54
2019-04-11T06:35:06.264Z,63.10
2019-04-11T06:36:06.376Z,62.89
2019-04-11T06:37:06.229Z,62.79
2019-04-11T06:38:06.227Z,62.55
2019-04-11T06:39:07.115Z,61.93
2019-04-11T06:40:07.334Z,62.35
2019-04-11T06:41:06.351Z,62.04
2019-04-11T06:42:07.493Z,61.93
2019-04-11T06:43:06.167Z,61.38
2019-04-11T06:44:06.874Z,61.18
2019-04-11T06:45:08.840Z,62.11
2019-04-11T06:46:07.116Z,61.72
2019-04-11T06:47:06.118Z,61.93
2019-04-11T06:48:07.323Z,62.45
2019-04-11T06:49:06.578Z,62.24
2019-04-11T06:50:06.899Z,62.04
2019-04-11T06:51:06.111Z,61.59
2019-04-11T06:52:06.058Z,61.90
2019-04-11T06:53:07.385Z,62.14
2019-04-11T06:54:06.383Z,62.01
2019-04-11T06:55:06.660Z,61.90
2019-04-11T06:56:06.045Z,62.24
2019-04-11T06:57:06.007Z,62.35
2019-04-11T06:58:06.772Z,61.93
2019-04-11T06:59:05.984Z,62.04
2019-04-11T07:00:07.195Z,62.87
2019-04-11T07:01:05.967Z,62.24
2019-04-11T07:02:11.591Z,61.49
2019-04-11T07:03:18.814Z,61.80
2019-04-11T07:04:07.146Z,61.69
2019-04-11T07:05:06.415Z,61.98
2019-04-11T07:06:06.931Z,61.87
2019-04-11T07:07:06.518Z,62.08
2019-04-11T07:08:05.935Z,61.77
2019-04-11T07:09:05.878Z,61.57
2019-04-11T07:10:06.282Z,61.77
2019-04-11T07:11:05.847Z,61.25
2019-04-11T07:12:05.869Z,61.49
2019-04-11T07:13:05.824Z,62.18
2019-04-11T07:14:06.088Z,62.18
2019-04-11T07:15:06.628Z,61.98
2019-04-11T07:16:05.795Z,61.46
2019-04-11T07:17:08.794Z,61.57
2019-04-11T07:18:07.498Z,61.64
2019-04-11T07:19:05.853Z,61.54
2019-04-11T07:20:06.749Z,61.43
2019-04-11T07:21:06.324Z,61.74
2019-04-11T07:22:06.782Z,62.05
2019-04-11T07:23:05.934Z,61.33
2019-04-11T07:24:05.697Z,61.71
2019-04-11T07:25:06.056Z,62.16
2019-04-11T07:26:05.676Z,61.85
2019-04-11T07:27:05.672Z,60.99
2019-04-11T07:28:05.712Z,61.22
2019-04-11T07:29:06.568Z,61.02
2019-04-11T07:30:05.629Z,60.71
2019-04-11T07:31:06.794Z,61.43
2019-04-11T07:32:05.726Z,61.51
2019-04-11T07:33:06.016Z,61.71
2019-04-11T07:34:06.219Z,61.10
2019-04-11T07:35:05.581Z,60.89
2019-04-11T07:36:05.969Z,60.44
2019-04-11T07:37:06.850Z,60.14
2019-04-11T07:38:05.541Z,59.72
2019-04-11T07:39:05.693Z,59.95
2019-04-11T07:40:06.225Z,59.83
2019-04-11T07:41:06.570Z,60.44
2019-04-11T07:42:07.062Z,60.24
2019-04-11T07:43:10.330Z,60.14
2019-04-11T07:44:06.476Z,60.63
2019-04-11T07:45:06.559Z,59.28
2019-04-11T07:46:05.455Z,59.25
2019-04-11T07:47:13.614Z,59.15
2019-04-11T07:48:07.181Z,58.94
2019-04-11T07:49:05.975Z,58.71
2019-04-11T07:50:05.859Z,58.50
2019-04-11T07:51:06.458Z,58.30
2019-04-11T07:52:06.690Z,58.09
2019-04-11T07:53:05.375Z,58.17
2019-04-11T07:54:05.386Z,57.45
2019-04-11T07:55:05.365Z,57.34
2019-04-11T07:56:05.348Z,57.45
2019-04-11T07:57:05.333Z,57.11
2019-04-11T07:58:06.366Z,57.55
2019-04-11T07:59:05.336Z,57.65
2019-04-11T08:00:05.991Z,57.11
2019-04-11T08:01:05.282Z,57.45
2019-04-11T08:02:05.800Z,57.83
2019-04-11T08:03:06.345Z,57.45
2019-04-11T08:04:06.040Z,57.45
2019-04-11T08:05:05.248Z,57.62
2019-04-11T08:06:05.288Z,57.42
2019-04-11T08:07:06.536Z,61.72
2019-04-11T08:08:06.757Z,57.37
2019-04-11T08:09:05.231Z,56.93
2019-04-11T08:10:05.881Z,57.03
2019-04-11T08:11:05.181Z,56.21
2019-04-11T08:12:05.158Z,55.28
2019-04-11T08:13:05.908Z,55.28
2019-04-11T08:14:06.245Z,55.59
2019-04-11T08:15:05.156Z,54.66
2019-04-11T08:16:06.301Z,55.59
2019-04-11T08:17:05.124Z,55.90
2019-04-11T08:18:05.099Z,55.49
2019-04-11T08:19:05.562Z,56.23
2019-04-11T08:20:05.110Z,56.00
2019-04-11T08:21:05.915Z,55.59
2019-04-11T08:22:06.304Z,55.59
2019-04-11T08:23:05.596Z,55.59
2019-04-11T08:24:05.034Z,55.66
2019-04-11T08:25:05.106Z,54.85
2019-04-11T08:26:06.119Z,54.41
2019-04-11T08:27:05.109Z,54.10
2019-04-11T08:28:07.829Z,54.00
2019-04-11T08:29:10.581Z,53.58
2019-04-11T08:30:06.616Z,53.48
2019-04-11T08:31:05.519Z,52.66
2019-04-11T08:32:04.939Z,53.17
2019-04-11T08:33:04.926Z,53.58
2019-04-11T08:34:04.993Z,53.69
2019-04-11T08:35:05.966Z,52.56
2019-04-11T08:36:05.204Z,53.25
2019-04-11T08:37:05.386Z,52.22
2019-04-11T08:38:04.891Z,52.64
2019-04-11T08:39:04.882Z,52.40
2019-04-11T08:40:05.879Z,51.58
2019-04-11T08:41:05.156Z,52.51
2019-04-11T08:42:05.205Z,51.92
2019-04-11T08:43:04.820Z,57.34
2019-04-11T08:44:05.599Z,54.05
2019-04-11T08:45:05.944Z,52.81
2019-04-11T08:46:04.809Z,52.07
2019-04-11T08:47:04.772Z,54.43
2019-04-11T08:48:04.759Z,52.56
2019-04-11T08:49:05.648Z,52.25
2019-04-11T08:50:06.018Z,52.84
2019-04-11T08:51:05.155Z,53.85
2019-04-11T08:52:05.530Z,50.56
2019-04-11T08:53:04.718Z,50.05
2019-04-11T08:54:04.931Z,49.05
2019-04-11T08:55:04.677Z,49.56
2019-04-11T08:56:05.513Z,49.77
2019-04-11T08:57:04.690Z,49.69
2019-04-11T08:58:04.651Z,50.20
2019-04-11T08:59:04.875Z,49.89
2019-04-11T09:00:04.639Z,50.84
2019-04-11T09:01:05.488Z,50.53
2019-04-11T09:02:06.803Z,50.53
2019-04-11T09:03:05.525Z,50.10
2019-04-11T09:04:07.898Z,49.69
2019-04-11T09:05:11.962Z,50.20
2019-04-11T09:06:06.330Z,49.79
2019-04-11T09:07:05.191Z,50.07
2019-04-11T09:08:05.771Z,49.66
2019-04-11T09:09:04.897Z,49.97
2019-04-11T09:10:04.587Z,49.15
2019-04-11T09:11:04.656Z,49.26
2019-04-11T09:12:04.537Z,49.56
2019-04-11T09:13:04.481Z,50.07
2019-04-11T09:14:04.472Z,50.90
2019-04-11T09:15:04.513Z,50.07
2019-04-11T09:16:05.484Z,49.64
2019-04-11T09:17:04.479Z,49.33
2019-04-11T09:18:08.821Z,49.43
2019-04-11T09:19:06.288Z,48.61
2019-04-11T09:20:05.337Z,49.62
2019-04-11T09:21:04.393Z,48.49
2019-04-11T09:22:04.732Z,48.39
2019-04-11T09:23:04.399Z,47.24
2019-04-11T09:24:04.355Z,47.24
2019-04-11T09:25:05.215Z,47.44
2019-04-11T09:26:04.484Z,47.55
2019-04-11T09:27:04.529Z,47.31
2019-04-11T09:28:04.980Z,47.01
2019-04-11T09:29:04.299Z,46.60
2019-04-11T09:30:04.495Z,45.37
2019-04-11T09:31:07.562Z,45.98
2019-04-11T09:32:04.407Z,45.90
2019-04-11T09:33:04.746Z,45.09
2019-04-11T09:34:04.241Z,45.57
2019-04-11T09:35:04.237Z,45.50
2019-04-11T09:36:04.236Z,44.98
2019-04-11T09:37:05.239Z,44.80
2019-04-11T09:38:04.412Z,45.21
2019-04-11T09:39:04.609Z,46.05
2019-04-11T09:40:04.176Z,46.87
2019-04-11T09:41:04.159Z,47.28
2019-04-11T09:42:05.005Z,47.46
2019-04-11T09:43:04.164Z,46.44
2019-04-11T09:44:04.397Z,46.83
2019-04-11T09:45:04.133Z,46.52
2019-04-11T09:46:04.129Z,47.03
2019-04-11T09:47:04.107Z,46.42
2019-04-11T09:48:12.616Z,46.50
2019-04-11T09:49:06.563Z,45.27
2019-04-11T09:50:04.374Z,47.13
2019-04-11T09:51:05.105Z,46.91
2019-04-11T09:52:04.360Z,45.57
2019-04-11T09:53:04.027Z,45.04
2019-04-11T09:54:04.041Z,45.04
2019-04-11T09:55:04.484Z,45.04
2019-04-11T09:56:04.788Z,44.82
2019-04-11T09:57:04.470Z,44.29
2019-04-11T09:58:03.980Z,42.75
2019-04-11T09:59:05.226Z,43.16
2019-04-11T10:00:04.039Z,41.63
2019-04-11T10:01:03.941Z,41.63
2019-04-11T10:02:03.925Z,41.93
2019-04-11T10:03:03.948Z,41.50
2019-04-11T10:04:03.933Z,42.44
2019-04-11T10:05:05.284Z,43.77
2019-04-11T10:06:05.148Z,42.85
2019-04-11T10:07:03.874Z,42.75
2019-04-11T10:08:03.860Z,42.65
2019-04-11T10:09:03.870Z,41.95
2019-04-11T10:10:04.600Z,42.57
2019-04-11T10:11:03.823Z,41.54
2019-04-11T10:12:04.526Z,41.13
2019-04-11T10:13:04.630Z,42.77
2019-04-11T10:14:05.072Z,42.75
2019-04-11T10:15:05.022Z,42.03
2019-04-11T10:16:03.997Z,42.53
2019-04-11T10:17:04.579Z,42.32
2019-04-11T10:18:03.746Z,42.02
2019-04-11T10:19:03.759Z,41.49
2019-04-11T10:20:04.724Z,41.09
2019-04-11T10:21:04.811Z,41.50
2019-04-11T10:22:04.846Z,41.40
2019-04-11T10:23:04.953Z,41.20
2019-04-11T10:24:03.692Z,41.42
2019-04-11T10:25:05.068Z,41.73
2019-04-11T10:26:03.658Z,41.52
2019-04-11T10:27:04.765Z,41.22
2019-04-11T10:28:04.798Z,41.42
2019-04-11T10:29:04.384Z,40.81
2019-04-11T10:30:04.545Z,41.34
2019-04-11T10:31:04.280Z,41.24
2019-04-11T10:32:03.721Z,40.84
2019-04-11T10:33:04.551Z,41.25
2019-04-11T10:34:04.586Z,41.38
2019-04-11T10:35:03.577Z,43.51
2019-04-11T10:36:03.558Z,44.00
2019-04-11T10:37:03.658Z,44.90
2019-04-11T10:38:05.161Z,42.34
2019-04-11T10:39:04.743Z,41.40
2019-04-11T10:40:04.007Z,41.20
2019-04-11T10:41:04.175Z,41.38
2019-04-11T10:42:04.282Z,41.08
2019-04-11T10:43:04.297Z,41.20
2019-04-11T10:44:03.458Z,41.01
2019-04-11T10:45:04.534Z,41.50
2019-04-11T10:46:03.461Z,40.48
2019-04-11T10:47:05.663Z,40.30
2019-04-11T10:48:03.419Z,40.30
2019-04-11T10:49:03.480Z,40.58
2019-04-11T10:50:03.391Z,40.89
2019-04-11T10:51:04.509Z,39.46
2019-04-11T10:52:04.386Z,39.95
2019-04-11T10:53:03.660Z,39.34
2019-04-11T10:54:06.609Z,39.24
2019-04-11T10:55:03.335Z,38.83
2019-04-11T10:56:04.239Z,38.62
2019-04-11T10:57:03.523Z,38.64
2019-04-11T10:58:04.639Z,38.34
2019-04-11T10:59:03.307Z,38.44
2019-04-11T11:00:03.302Z,39.46
2019-04-11T11:01:03.972Z,38.76
2019-04-11T11:02:04.389Z,38.76
2019-04-11T11:03:04.060Z,38.95
2019-04-11T11:04:03.415Z,38.95
2019-04-11T11:05:03.258Z,39.36
2019-04-11T11:06:03.257Z,39.15
2019-04-11T11:07:04.365Z,39.58
2019-04-11T11:08:03.197Z,39.89
2019-04-11T11:09:03.954Z,38.75
2019-04-11T11:10:03.251Z,38.95
2019-04-11T11:12:05.451Z,37.50
2019-04-11T11:13:03.477Z,36.29
2019-04-11T11:14:04.547Z,37.74
2019-04-11T11:15:03.239Z,38.88
2019-04-11T11:16:04.180Z,37.96
2019-04-11T11:17:03.118Z,37.76
2019-04-11T11:18:35.225Z,37.98
2019-04-11T11:19:27.371Z,37.77
2019-04-11T11:20:16.749Z,38.59
2019-04-11T11:21:05.709Z,39.21
2019-04-11T11:22:03.880Z,38.98
2019-04-11T11:23:06.923Z,38.59
2019-04-11T11:24:07.192Z,38.68
2019-04-11T11:25:03.235Z,38.17
2019-04-11T11:26:03.017Z,36.73
2019-04-11T11:27:04.542Z,37.86
2019-04-11T11:28:03.673Z,37.74
2019-04-11T11:29:08.265Z,36.82
2019-04-11T11:30:04.924Z,36.92
2019-04-11T11:31:03.252Z,36.00
2019-04-11T11:32:03.168Z,36.10
2019-04-11T11:33:02.917Z,36.83
2019-04-11T11:34:02.955Z,36.63
2019-04-11T11:35:03.396Z,39.39
2019-04-11T11:36:07.496Z,41.36
2019-04-11T11:37:04.818Z,42.10
2019-04-11T11:38:03.915Z,42.50
2019-04-11T11:39:02.876Z,40.99
2019-04-11T11:40:06.798Z,39.43
2019-04-11T11:41:03.952Z,40.35
2019-04-11T11:42:04.022Z,41.58
2019-04-11T11:43:03.108Z,41.27
2019-04-11T11:44:03.465Z,40.25
2019-04-11T11:45:04.099Z,42.30
2019-04-11T11:46:03.142Z,42.69
2019-04-11T11:47:03.840Z,43.71
2019-04-11T11:48:02.759Z,43.40
2019-04-11T11:49:03.036Z,43.61
2019-04-11T11:50:04.542Z,43.49
2019-04-11T11:51:03.364Z,43.82
2019-04-11T11:52:03.103Z,43.18
2019-04-11T11:53:08.226Z,43.49
2019-04-11T11:54:03.993Z,42.77
2019-04-11T11:55:02.670Z,40.95
2019-04-11T11:56:02.668Z,41.44
2019-04-11T11:57:02.677Z,40.42
2019-04-11T11:58:03.432Z,40.72
2019-04-11T11:59:02.912Z,40.23
2019-04-11T12:00:02.958Z,39.29
2019-04-11T12:01:06.690Z,40.44
2019-04-11T12:02:04.399Z,40.44
2019-04-11T12:03:03.639Z,40.31
2019-04-11T12:04:03.386Z,41.25
2019-04-11T12:05:02.666Z,41.13
2019-04-11T12:06:03.076Z,40.64
2019-04-11T12:07:04.430Z,40.72
2019-04-11T12:08:02.551Z,41.15
2019-04-11T12:09:02.586Z,40.31
2019-04-11T12:10:02.845Z,40.81
2019-04-11T12:11:03.691Z,39.69
2019-04-11T12:12:02.488Z,40.70
2019-04-11T12:13:06.659Z,40.50
2019-04-11T12:14:04.060Z,40.91
2019-04-11T12:15:03.426Z,39.89
2019-04-11T12:16:03.621Z,39.48
2019-04-11T12:17:05.157Z,39.37
2019-04-11T12:18:04.530Z,38.18
2019-04-11T12:19:02.630Z,37.55
2019-04-11T12:20:08.974Z,38.29
2019-04-11T12:21:03.383Z,37.88
2019-04-11T12:22:02.382Z,38.31
2019-04-11T12:23:02.364Z,39.33
2019-04-11T12:24:06.119Z,39.53
2019-04-11T12:25:02.969Z,40.45
2019-04-11T12:26:03.192Z,40.66
2019-04-11T12:27:02.454Z,39.62
2019-04-11T12:28:04.163Z,39.41
2019-04-11T12:29:02.326Z,38.98
2019-04-11T12:30:04.592Z,39.39
2019-04-11T12:31:03.848Z,38.90
2019-04-11T12:32:02.261Z,39.00
2019-04-11T12:33:03.371Z,39.84
2019-04-11T12:34:02.270Z,40.25
2019-04-11T12:35:02.297Z,40.76
2019-04-11T12:36:03.281Z,40.45
2019-04-11T12:37:02.305Z,40.56
2019-04-11T12:38:02.234Z,40.86
2019-04-11T12:39:02.225Z,40.64
2019-04-11T12:40:02.170Z,40.44
2019-04-11T12:41:02.155Z,40.95
2019-04-11T12:42:02.149Z,39.41
2019-04-11T12:43:02.136Z,40.23
2019-04-11T12:44:02.171Z,40.45
2019-04-11T12:45:02.151Z,39.82
2019-04-11T12:46:02.111Z,38.51
2019-04-11T12:47:02.098Z,39.00
2019-04-11T12:48:02.090Z,38.92
2019-04-11T12:49:02.071Z,38.80
2019-04-11T12:50:02.093Z,38.49
2019-04-11T12:51:02.079Z,38.59
2019-04-11T12:52:02.042Z,38.29
2019-04-11T12:53:02.025Z,38.59
2019-04-11T12:54:02.012Z,38.49
2019-04-11T12:55:02.064Z,39.21